Accueil
METAR-TAF:

METAR-TAF

Aéroports :

Luxembourg, Luxembourg

Aéroport de Luxembourg-Findel

latitude: 49-37N, longitude: 006-13E, altitude: 376 m

Observation

Le bulletin a été fait il y a 28 minutes, à 12:20 UTC
Vent 7 kt de sud/sud-est
Température 18°C
Humidité 64%
Pression 1015 hPa
Visibilité 10 km ou plus
pas de nuages en-dessous de 1500 mètres et pas de cumulonimbus.

METAR: ELLX 181220Z 16007KT CAVOK 18/11 Q1015 NOSIG

Heure: 14:48 (12:48 UTC)

Prévision

Le bulletin a été fait il y a 1 heure et 48 minutes, à 11:00 UTC
Prévision valable du 18 à 12 UTC au 19 à 18 UTC
Vent 7 kt de sud/sud-est
Visibilité 10 km ou plus
pas de nuages en-dessous de 1500 mètres et pas de cumulonimbus.
Probabilité 40%
du 18 à 22 UTC au 19 à 06 UTC
Visibilité: 4000 m
bancs de brouillard

TAF: ELLX 181100Z 1812/1918 16007KT CAVOK PROB40 1822/1906 4000 BCFG

Observations et prévisions météorologiques de plus de 4000 aéroports (messages METAR et TAF).

Les stations disponibles sont représentées par des disques jaunes et rouges sur la carte.

Passer la souris dessus pour voir le nom de la station.

Cliquer dessus pour voir les observations et prévisions météorologiques.

Pour changer de carte: cliquez sur les boutons verts avec une croix noire pour zoomer, sur le bouton vert avec un tiret pour effectuer un zoom arrière, ou sur les flèches vertes pour les cartes adjacentes.


METAR-TAF: